• Join FlightAware (Why Join?)
  • Login
  • US Flag 
02:18PM EDT


 

Airport Tracker/Info


-or-


 

Live Flight TrackerFlight Track Log ✈ UAL4986 ✈ 18-Aug-2014 ✈ KORD - KRSW

Flight Track Log - Related Links

Times and Time Zones

All times are in EDT time to prevent confusion due to time zone crossing. See the UAL4986 flight status page for this flight to view local times or setup timezone preferences in your user account.

Time Position Orientation Groundspeed Altitude Reporting Facility
EDT Latitude Longitude Course Direction KTS MPH feet Rate Location/Type
10:18PM 41.9500 -87.9167 176° South 163 188 1,300  Level Chicago TRACON
10:19PM 41.9000 -87.9000 166° South 181 208 3,000 1,680 Climbing Chicago TRACON
10:20PM 41.8333 -87.9000 180° South 242 278 4,700 1,800 Climbing Chicago TRACON
10:21PM 41.7667 -87.9000 180° South 278 320 6,800 2,100 Climbing Chicago TRACON
10:22PM 41.6833 -87.8833 172° South 293 337 8,800 2,160 Climbing Chicago TRACON
10:24PM 41.4507 -87.6503 176° South  Level Estimated
10:24PM 41.5603 -87.8828 180° South 308 354 12,100  Level Chicago Center
10:25PM 41.4658 -87.8800 179° South 315 362 14,700 1,680 Climbing Chicago Center
10:26PM 41.3744 -87.8631 172° South 342 394 15,600 1,380 Climbing Chicago Center
10:27PM 41.2761 -87.8372 169° South 359 413 17,600 1,860 Climbing Chicago Center
10:28PM 41.1869 -87.8156 170° South 359 413 19,500 1,620 Climbing Chicago Center
10:29PM 41.0889 -87.7922 170° South 359 413 21,000 1,560 Climbing Chicago Center
10:30PM 40.9653 -87.7633 170° South 369 425 22,800 1,680 Climbing Chicago Center
10:31PM 40.8617 -87.7375 169° South 374 430 24,500 1,260 Climbing Chicago Center
10:32PM 40.7578 -87.7125 170° South 378 435 25,400 900 Climbing Chicago Center
10:33PM 40.6486 -87.6867 170° South 393 452 26,400 1,020 Climbing Chicago Center
10:34PM 40.5378 -87.6600 170° South 404 465 27,500 1,080 Climbing Chicago Center
10:35PM 40.4256 -87.6333 170° South 408 470 28,700 1,140 Climbing Chicago Center
10:36PM 40.3144 -87.6064 170° South 408 470 29,900 1,080 Climbing Chicago Center
10:37PM 40.2031 -87.5894 173° South 408 470 30,900 780 Climbing Chicago Center
10:38PM 40.0836 -87.6089 187° South 400 460 31,600 660 Climbing Indianapolis Center
10:39PM 39.9711 -87.6236 186° South 404 465 32,300 540 Climbing Indianapolis Center
10:40PM 39.8558 -87.6400 186° South 412 474 32,800 480 Climbing Indianapolis Center
10:41PM 39.7378 -87.6464 182° South 421 484 33,300 480 Climbing Indianapolis Center
10:42PM 39.5928 -87.6114 169° South 438 504 33,900 480 Climbing Indianapolis Center
10:43PM 39.4714 -87.5772 168° South 444 511 34,400 480 Climbing Indianapolis Center
10:44PM 39.3483 -87.5442 168° South 447 514 34,900 600 Climbing Indianapolis Center
10:45PM 39.2253 -87.5094 168° South 450 518 35,700 780 Climbing Indianapolis Center
10:46PM 39.1006 -87.4753 168° South 448 516 36,500 780 Climbing Indianapolis Center
10:47PM 38.9803 -87.4417 168° South 447 514 37,300 720 Climbing Indianapolis Center
10:48PM 38.8628 -87.4086 168° South 438 504 38,000 600 Climbing Indianapolis Center
10:49PM 38.7508 -87.3611 162° South 427 491 38,600 480 Climbing Indianapolis Center
10:50PM 38.6389 -87.3164 163° South 426 490 39,000 180 Climbing Indianapolis Center
10:51PM 38.5286 -87.2725 163° South 419 482 39,000  Level Indianapolis Center
10:52PM 38.4172 -87.2292 163° South 419 482 39,000  Level Indianapolis Center
10:53PM 38.2875 -87.1783 163° South 421 484 39,000  Level Indianapolis Center
10:54PM 38.1722 -87.1283 161° South 429 494 39,000  Level Indianapolis Center
10:55PM 38.0522 -87.0817 163° South 439 505 39,000  Level Indianapolis Center
10:56PM 37.9356 -87.0342 162° South 440 506 39,000  Level Indianapolis Center
10:57PM 37.8175 -86.9869 162° South 442 509 39,000  Level Indianapolis Center
10:58PM 37.6972 -86.9386 162° South 446 513 39,000  Level Indianapolis Center
10:59PM 37.5778 -86.8911 163° South 447 514 39,000  Level Indianapolis Center
11:00PM 37.4431 -86.8539 168° South 443 510 39,000  Level Indianapolis Center
11:01PM 37.3208 -86.8392 175° South 440 506 39,000  Level Indianapolis Center
11:02PM 37.1986 -86.8203 173° South 439 505 39,000  Level Indianapolis Center
11:03PM 37.0761 -86.8028 173° South 439 505 39,000  Level Indianapolis Center
11:04PM 36.9531 -86.7836 173° South 439 505 39,000  Level Indianapolis Center
11:05PM 36.8319 -86.7592 171° South 439 505 39,000  Level Indianapolis Center
11:06PM 36.7150 -86.7086 161° South 439 505 39,000  Level Indianapolis Center
11:08PM 36.5967 -86.6606 162° South 439 505 39,000  Level Indianapolis Center
11:09PM 36.4764 -86.6108 162° South 440 506 39,000  Level Indianapolis Center
11:10PM 36.3553 -86.5606 162° South 444 511 39,000  Level Indianapolis Center
11:11PM 36.2358 -86.5153 163° South 443 510 39,000  Level Indianapolis Center
11:12PM 36.1164 -86.4681 162° South 443 510 39,000  Level Indianapolis Center
11:13PM 35.9978 -86.4211 162° South 443 510 39,000  Level Indianapolis Center
11:14PM 35.8194 -86.3503 162° South 443 510 39,000  Level Memphis Center
11:15PM 35.7031 -86.3031 162° South 442 509 39,000  Level Memphis Center
11:16PM 35.5842 -86.2567 162° South 442 509 39,000  Level Memphis Center
11:17PM 35.4669 -86.2094 162° South 441 507 39,000  Level Memphis Center
11:18PM 35.3422 -86.1603 162° South 441 507 39,000  Level Memphis Center
11:19PM 35.2256 -86.1136 162° South 441 507 39,000  Level Memphis Center
11:20PM 35.1092 -86.0675 162° South 441 507 39,000  Level Memphis Center
11:21PM 34.9928 -86.0211 162° South 441 507 39,000  Level Memphis Center
11:22PM 34.8758 -85.9756 162° South 441 507 39,000  Level Memphis Center
11:23PM 34.7628 -85.9314 162° South 441 507 39,000  Level Memphis Center
11:24PM 34.6422 -85.8847 162° South 441 507 39,000  Level Memphis Center
11:25PM 34.5294 -85.8417 163° South 440 506 39,000  Level Memphis Center
11:26PM 34.3767 -85.7856 163° South 431 496 39,000  Level Atlanta Center
11:27PM 34.2606 -85.7403 162° South 431 496 39,000  Level Atlanta Center
11:28PM 34.1422 -85.6953 163° South 439 505 39,000  Level Atlanta Center
11:29PM 34.0239 -85.6503 163° South 444 511 39,000  Level Atlanta Center
11:30PM 33.9053 -85.6056 163° South 444 511 39,000  Level Atlanta Center
11:31PM 33.7850 -85.5583 162° South 444 511 39,000  Level Atlanta Center
11:32PM 33.6664 -85.5164 164° South 444 511 39,000  Level Atlanta Center
11:33PM 33.5458 -85.4694 162° South 444 511 39,000  Level Atlanta Center
11:34PM 33.4275 -85.4228 162° South 444 511 39,000  Level Atlanta Center
11:35PM 33.3069 -85.3786 163° South 450 518 39,000  Level Atlanta Center
11:36PM 33.1883 -85.3369 164° South 450 518 39,000  Level Atlanta Center
11:37PM 33.0700 -85.2906 162° South 450 518 39,000  Level Atlanta Center
11:38PM 32.9639 -85.2447 160° South 450 518 39,000  Level Atlanta Center
11:39PM 32.8411 -85.1983 162° South 455 524 39,000  Level Atlanta Center
11:40PM 32.7247 -85.1525 162° South 460 529 39,000  Level Atlanta Center
11:42PM 32.5150 -85.0778 163° South 466 536 39,000  Level Jacksonville Center
11:43PM 32.3969 -85.0331 162° South 456 525 39,000  Level Jacksonville Center
11:44PM 32.2764 -84.9911 164° South 451 519 39,000  Level Jacksonville Center
11:45PM 32.1561 -84.9464 163° South 451 519 39,000  Level Jacksonville Center
11:46PM 32.0358 -84.9047 164° South 456 525 39,000  Level Jacksonville Center
11:47PM 31.9153 -84.8603 163° South 456 525 39,000  Level Jacksonville Center
11:48PM 31.7969 -84.8211 164° South 451 519 39,000  Level Jacksonville Center
11:49PM 31.6786 -84.7797 163° South 451 519 39,000  Level Jacksonville Center
11:50PM 31.5603 -84.7358 162° South 451 519 39,000  Level Jacksonville Center
11:51PM 31.4356 -84.6919 163° South 451 519 39,000  Level Jacksonville Center
11:52PM 31.3172 -84.6508 163° South 457 526 39,000  Level Jacksonville Center
11:53PM 31.1967 -84.6047 162° South 452 520 39,000  Level Jacksonville Center
11:54PM 31.0781 -84.5639 164° South 452 520 39,000  Level Jacksonville Center
11:55PM 30.9578 -84.5181 162° South 452 520 39,000  Level Jacksonville Center
11:56PM 30.8372 -84.4772 164° South 452 520 39,000  Level Jacksonville Center
11:57PM 30.7164 -84.4367 164° South 452 520 39,000  Level Jacksonville Center
11:58PM 30.5833 -84.3861 162° South 459 528 39,000  Level Jacksonville Center
11:59PM 30.4756 -84.3219 153° Southeast 446 513 39,000  Level Jacksonville Center
12:00AM 30.3658 -84.2553 152° Southeast 441 507 39,000  Level Jacksonville Center
12:01AM 30.2494 -84.1911 155° Southeast 447 514 39,000  Level Jacksonville Center
12:02AM 30.1561 -84.1394 154° Southeast 441 507 39,000  Level Jacksonville Center
12:03AM 30.0461 -84.0756 153° Southeast 441 507 39,000  Level Jacksonville Center
12:04AM 29.9339 -84.0119 154° Southeast 446 513 39,000  Level Jacksonville Center
12:05AM 29.8236 -83.9508 154° Southeast 440 506 39,000  Level Jacksonville Center
12:06AM 29.7094 -83.8850 153° Southeast 446 513 39,000  Level Jacksonville Center
12:07AM 29.5992 -83.8242 154° Southeast 446 513 39,000  Level Jacksonville Center
12:08AM 29.4889 -83.7611 154° Southeast 446 513 39,000  Level Jacksonville Center
12:09AM 29.3767 -83.6981 154° Southeast 446 513 39,000  Level Jacksonville Center
12:10AM 29.2644 -83.6328 153° Southeast 446 513 39,000  Level Jacksonville Center
12:11AM 29.1519 -83.5703 154° Southeast 446 513 39,000  Level Jacksonville Center
12:12AM 29.0394 -83.5100 155° Southeast 446 513 39,000  Level Jacksonville Center
12:13AM 28.9272 -83.4453 153° Southeast 446 513 39,000  Level Jacksonville Center
12:14AM 28.8147 -83.3856 155° Southeast 446 513 39,000  Level Jacksonville Center
12:17AM 28.5428 -83.2303 153° Southeast 446 513 39,000 -60 Level Miami Center
12:18AM 28.4308 -83.1697 155° Southeast 446 513 38,900 -1,200 Descending Miami Center
12:19AM 28.3194 -83.1075 154° Southeast 446 513 36,700 -2,580 Descending Miami Center
12:20AM 28.2056 -83.0450 154° Southeast 452 520 33,700 -2,940 Descending Miami Center
12:21AM 28.0950 -82.9844 154° Southeast 449 517 30,700 -2,820 Descending Miami Center
12:22AM 27.9858 -82.9258 155° Southeast 440 506 28,100 -1,980 Descending Miami Center
12:23AM 27.8822 -82.8683 154° Southeast 414 476 26,900 -600 Descending Miami Center
12:24AM 27.7725 -82.8075 154° Southeast 399 459 27,000  Climbing Miami Center
12:25AM 27.6633 -82.7489 155° Southeast 408 470 27,000 -660 Level Miami Center
12:26AM 27.5614 -82.6956 155° Southeast 417 480 25,700 -1,500 Descending Miami Center
12:27AM 27.4589 -82.6394 154° Southeast 396 456 24,100 -1,920 Descending Miami Center
12:28AM 27.3656 -82.5889 154° Southeast 390 449 21,800 -2,400 Descending Miami Center
12:29AM 27.2656 -82.5350 154° Southeast 382 440 19,400 -2,340 Descending Miami Center
12:30AM 27.1678 -82.5308 178° South 372 428 17,200 -2,220 Descending Miami Center
12:31AM 27.0700 -82.5400 185° South 357 411 14,900 -2,340 Descending Miami Center
12:32AM 26.9686 -82.5481 184° South 342 394 12,500 -1,800 Descending Miami Center
12:33AM 26.8858 -82.5558 185° South 327 376 11,300 -1,440 Descending Miami Center
12:34AM 26.8036 -82.5631 184° South 300 345 9,700 -1,320 Descending Miami Center
12:35AM 26.7225 -82.5708 185° South 294 338 8,600 -1,020 Descending Miami Center
12:36AM 26.6536 -82.5353 155° Southeast 292 336 7,700 -1,020 Descending Miami Center
12:37AM 26.6172 -82.4461 115° Southeast 297 342 6,600 -1,020 Descending Miami Center
12:38AM 26.5856 -82.3664 114° Southeast 288 331 5,700 -840 Descending Miami Center
12:39AM 26.5544 -82.2875 114° Southeast 283 326 5,000 -780 Descending Miami Center
12:40AM 26.5247 -82.2136 114° Southeast 266 306 4,200 -840 Descending Miami Center
12:41AM 26.4956 -82.1414 114° Southeast 262 302 3,400 -600 Descending Miami Center
12:42AM 26.4647 -82.0636 114° Southeast 258 297 3,000 -240 Descending Miami Center
12:43AM 26.4408 -81.9869 109° East 265 305 3,000  Level Miami Center